GON - Groton New London

Pirep is a free, collaborative database of all public and private airports located within the United States. All pilots are welcome to contribute, edit, and improve any airport they have local knowledge about, no registration required.
Are you familiar with this airport? Help out other pilots by adding your local knowledge.
Uploaded photos will be licensed under a CC BY-SA 4.0 license. Please only upload photos you have the rights to use.
Tags
Public
Undocu­mented
METAR / TAF
Edit Tags
Food
Camping
Lodging
Car Rental
Bicycles
Swimming
Golfing
Fishing
Hot Springs
Museum
Flying Clubs
Airpark
Upcoming Events
No upcoming events. Is anything happening here soon?
*
*
*

Where exactly on/near the airport is this event taking place?

Is there a webpage with more information for this event?

Who should be contacted for more information?

What is this event all about?

Repeat every
Description
Transient Parking
Fuel Location
Landing & Tie-down Fees
Crew Car Availability
Flying Clubs
WiFi Access
Airport Statistics
Location: Groton (New London), CT
Elevation: 9ft
Sectional: New York
Activation date: Apr 1940
Fuel: 100LL, A (prices)
Runway 05/23: 5,000ft
Runway 15/33: 4,000ft
Access: Open to the public
Current Weather — VFR
  • Weather data is strictly informational and not for flight planning purposes.
  • METAR
    2024-05-30 03:56:00 EDT
    Ceiling Wind Temperature Dewpoint Weather Visbility
    8,500ft 30° @ 9kt 62°F 60°F Light rain 10SM
    Clouds: Few @ 4,900ft, Scattered @ 6,000ft, Overcast @ 8,500ft
    Raw: KGON 300756Z AUTO 03009KT 10SM -RA FEW049 SCT060 OVC085 17/16 A2983 RMK AO2 PRESFR SLP100 P0009 T01670156
  • TAF
    2024-05-30 02:00:00 EDT – 2024-05-30 06:00:00 EDT
    Ceiling Wind Weather Visbility
    5,000ft 350° @ 5kt Light rain 5SM
    Clouds: Scattered @ 2,500ft, Overcast @ 5,000ft
    Raw: KGON 300545Z 3006/3106 35005KT 5SM -RA SCT025 OVC050 FM301000 36008KT 5SM -SHRA BR BKN015 OVC030 TEMPO 3012/3015 3SM -SHRA BR BKN008 FM301600 36012G18KT P6SM BKN015 OVC035 FM302000 36010KT P6SM SCT030 BKN060 FM310000 35002KT P6SM BKN070
  • TAF
    2024-05-30 06:00:00 EDT – 2024-05-30 12:00:00 EDT
    Ceiling Wind Weather Visbility
    1,500ft 360° @ 8kt Light rain showers, mist 5SM
    Clouds: Broken @ 1,500ft, Overcast @ 3,000ft
    Raw: KGON 300545Z 3006/3106 35005KT 5SM -RA SCT025 OVC050 FM301000 36008KT 5SM -SHRA BR BKN015 OVC030 TEMPO 3012/3015 3SM -SHRA BR BKN008 FM301600 36012G18KT P6SM BKN015 OVC035 FM302000 36010KT P6SM SCT030 BKN060 FM310000 35002KT P6SM BKN070
  • TAF
    2024-05-30 08:00:00 EDT – 2024-05-30 11:00:00 EDT
    Ceiling Wind Weather Visbility
    800ft ° @ kt Light rain showers, mist 3SM
    Clouds: Broken @ 800ft
    Raw: KGON 300545Z 3006/3106 35005KT 5SM -RA SCT025 OVC050 FM301000 36008KT 5SM -SHRA BR BKN015 OVC030 TEMPO 3012/3015 3SM -SHRA BR BKN008 FM301600 36012G18KT P6SM BKN015 OVC035 FM302000 36010KT P6SM SCT030 BKN060 FM310000 35002KT P6SM BKN070
  • TAF
    2024-05-30 12:00:00 EDT – 2024-05-30 16:00:00 EDT
    Ceiling Wind Weather Visbility
    1,500ft 360° @ 12kt, gusts 18kt N/A 6SM
    Clouds: Broken @ 1,500ft, Overcast @ 3,500ft
    Raw: KGON 300545Z 3006/3106 35005KT 5SM -RA SCT025 OVC050 FM301000 36008KT 5SM -SHRA BR BKN015 OVC030 TEMPO 3012/3015 3SM -SHRA BR BKN008 FM301600 36012G18KT P6SM BKN015 OVC035 FM302000 36010KT P6SM SCT030 BKN060 FM310000 35002KT P6SM BKN070
  • TAF
    2024-05-30 16:00:00 EDT – 2024-05-30 20:00:00 EDT
    Ceiling Wind Weather Visbility
    6,000ft 360° @ 10kt N/A 6SM
    Clouds: Scattered @ 3,000ft, Broken @ 6,000ft
    Raw: KGON 300545Z 3006/3106 35005KT 5SM -RA SCT025 OVC050 FM301000 36008KT 5SM -SHRA BR BKN015 OVC030 TEMPO 3012/3015 3SM -SHRA BR BKN008 FM301600 36012G18KT P6SM BKN015 OVC035 FM302000 36010KT P6SM SCT030 BKN060 FM310000 35002KT P6SM BKN070
  • TAF
    2024-05-30 20:00:00 EDT – 2024-05-31 02:00:00 EDT
    Ceiling Wind Weather Visbility
    7,000ft 350° @ 2kt N/A 6SM
    Clouds: Broken @ 7,000ft
    Raw: KGON 300545Z 3006/3106 35005KT 5SM -RA SCT025 OVC050 FM301000 36008KT 5SM -SHRA BR BKN015 OVC030 TEMPO 3012/3015 3SM -SHRA BR BKN008 FM301600 36012G18KT P6SM BKN015 OVC035 FM302000 36010KT P6SM SCT030 BKN060 FM310000 35002KT P6SM BKN070
Click/tap to add an annotation marker to the map
Airport Webcams
No webcams added yet.
Direct links to live image URLs will be displayed inline on this page. URLs to separate webpages will be linked to.
URL:
Direct links to live image URLs will be displayed inline on this page. URLs to separate webpages will be linked to.
URL:
Remarks
  • Existed prior to 1959.
  • Clsd to unsked acr opns with more than 30 psgr seats exc 48 hr ppr, call 860-250-4701.
  • Deer, birds & waterfowl on & invof arpt.
  • Practice apchs/full-stop/tgls prohibited by pure jet acft & acft weighing 12500 lbs & ovr exc by written apvl fm the connecticut arpt auth.
  • Noise abatement procs in efct are as flws: rwy 05: turn left hdg 020 til rchg 1000 ft, then on crs; rwy 23: turn left hdg 210 til rchg 1000 ft, then on crs; rwy 33: fly rwy hdg til rchg 1000 ft, then on crs.
Comments
Leave a comment What was your experience like at this airport?